Time;durP1;ratioP1;P1;durP2;ratioP2;P2;SDS_P1;SDS_P2;PMS_P1;PMS_P2;Temp;Humidity;BMP_temperature;BMP_pressure;BME280_temperature;BME280_humidity;BME280_pressure;Samples;Min_cycle;Max_cycle;Signal;HPM_P1;HPM_P2
2020/12/05 00:01:07;;;;;;;23.90;11.87;;;3.10;99.90;;;;;;5087250;28;20241;-80
2020/12/05 00:03:33;;;;;;;25.43;12.30;;;3.10;99.90;;;;;;5081236;28;20264;-81
2020/12/05 00:05:58;;;;;;;26.17;13.03;;;3.10;99.90;;;;;;5087888;28;20179;-81
2020/12/05 00:08:24;;;;;;;29.00;12.83;;;3.10;99.90;;;;;;5055320;28;20281;-81
2020/12/05 00:10:50;;;;;;;22.23;12.20;;;3.10;99.90;;;;;;5082688;28;20206;-81
2020/12/05 00:13:16;;;;;;;26.17;12.57;;;3.20;99.90;;;;;;5090379;28;20560;-82
2020/12/05 00:15:42;;;;;;;25.03;13.00;;;3.20;99.90;;;;;;5073739;28;20171;-79
2020/12/05 00:18:07;;;;;;;26.00;12.80;;;3.20;99.90;;;;;;5068401;28;20183;-82
2020/12/05 00:20:33;;;;;;;29.10;13.77;;;3.20;99.90;;;;;;5080085;28;20213;-83
2020/12/05 00:22:58;;;;;;;24.77;12.97;;;3.20;99.90;;;;;;5073903;28;20213;-82
2020/12/05 00:25:24;;;;;;;27.50;12.77;;;3.20;99.90;;;;;;5090865;28;20641;-80
2020/12/05 00:27:51;;;;;;;28.23;13.80;;;3.30;99.90;;;;;;5074334;28;20198;-81
2020/12/05 00:30:16;;;;;;;24.30;11.87;;;3.30;99.90;;;;;;5075215;28;20251;-83
2020/12/05 00:32:42;;;;;;;27.33;14.90;;;3.20;99.90;;;;;;5069334;28;20203;-80
2020/12/05 00:35:08;;;;;;;26.33;12.83;;;3.20;99.90;;;;;;5069280;28;20648;-82
2020/12/05 00:37:33;;;;;;;24.90;12.77;;;3.20;99.90;;;;;;5053444;28;20193;-85
2020/12/05 00:39:59;;;;;;;25.93;12.27;;;3.20;99.90;;;;;;5087386;28;20275;-85
2020/12/05 00:42:25;;;;;;;26.87;12.77;;;3.20;99.90;;;;;;5068826;28;20238;-83
2020/12/05 00:44:51;;;;;;;27.73;12.80;;;3.20;99.90;;;;;;5056413;28;20553;-82
2020/12/05 00:47:16;;;;;;;24.00;11.87;;;3.20;99.90;;;;;;5073050;28;20191;-82
2020/12/05 00:49:42;;;;;;;27.47;11.87;;;3.20;99.90;;;;;;5088017;28;20185;-83
2020/12/05 00:52:08;;;;;;;24.87;12.40;;;3.10;99.90;;;;;;5082553;28;20207;-83
2020/12/05 00:54:33;;;;;;;29.47;14.07;;;3.10;99.90;;;;;;5071727;28;20167;-82
2020/12/05 00:56:59;;;;;;;23.90;12.50;;;3.20;99.90;;;;;;5080565;28;20594;-81
2020/12/05 00:59:24;;;;;;;25.23;12.77;;;3.10;99.90;;;;;;5091546;28;20186;-82
2020/12/05 01:01:54;;;;;;;27.50;12.37;;;3.20;99.90;;;;;;5070516;28;20573;-83
2020/12/05 01:04:21;;;;;;;25.20;12.10;;;3.20;99.90;;;;;;5056147;28;20160;-82
2020/12/05 01:06:46;;;;;;;28.20;12.60;;;3.20;99.90;;;;;;5078277;28;20175;-83
2020/12/05 01:09:13;;;;;;;25.47;12.67;;;3.20;99.90;;;;;;5091253;28;20191;-82
2020/12/05 01:11:39;;;;;;;28.33;12.67;;;3.20;99.90;;;;;;5070771;28;20286;-83
2020/12/05 01:14:04;;;;;;;26.83;13.03;;;3.20;99.90;;;;;;5056260;28;20259;-81
2020/12/05 01:16:31;;;;;;;32.57;14.33;;;3.30;99.90;;;;;;5070829;28;20187;-82
2020/12/05 01:18:57;;;;;;;27.60;13.77;;;3.30;99.90;;;;;;5064309;28;20262;-81
2020/12/05 01:21:22;;;;;;;23.83;12.03;;;3.40;99.90;;;;;;5071481;28;20227;-82
2020/12/05 01:23:48;;;;;;;24.77;13.93;;;3.40;99.90;;;;;;5055794;28;20172;-81
2020/12/05 01:26:13;;;;;;;27.07;13.73;;;3.40;99.90;;;;;;5070679;28;20183;-82
2020/12/05 01:28:39;;;;;;;27.77;13.23;;;3.40;99.90;;;;;;5078658;28;20182;-82
2020/12/05 01:31:05;;;;;;;28.87;14.10;;;3.50;99.90;;;;;;5073976;28;20206;-80
2020/12/05 01:33:31;;;;;;;24.87;12.27;;;3.50;99.90;;;;;;5075338;28;20175;-82
2020/12/05 01:35:58;;;;;;;32.17;14.43;;;3.60;99.90;;;;;;5091245;28;20555;-81
2020/12/05 01:38:23;;;;;;;27.97;14.30;;;3.60;99.90;;;;;;5088837;28;20269;-83
2020/12/05 01:40:54;;;;;;;28.73;14.13;;;3.70;99.90;;;;;;5075339;28;20289;-82
2020/12/05 01:43:20;;;;;;;35.43;16.60;;;3.70;99.90;;;;;;5055622;28;20191;-82
2020/12/05 01:45:49;;;;;;;34.97;15.40;;;3.70;99.90;;;;;;5055574;28;20656;-81
2020/12/05 01:48:18;;;;;;;34.70;16.63;;;3.70;99.90;;;;;;5087313;28;20656;-80
2020/12/05 01:50:44;;;;;;;32.50;15.83;;;3.80;99.90;;;;;;5074036;28;21942;-81
2020/12/05 01:53:12;;;;;;;35.57;16.17;;;3.80;99.90;;;;;;5090078;28;20266;-79
2020/12/05 01:55:40;;;;;;;30.27;16.07;;;3.90;99.90;;;;;;5090361;28;20236;-80
2020/12/05 01:58:06;;;;;;;34.47;17.47;;;3.90;99.90;;;;;;5089824;28;20179;-82
2020/12/05 02:00:31;;;;;;;29.67;15.03;;;3.90;99.90;;;;;;5091026;28;20187;-81
2020/12/05 02:02:57;;;;;;;36.07;18.37;;;3.90;99.90;;;;;;5057935;28;20192;-80
2020/12/05 02:05:43;;;;;;;33.97;16.37;;;4.00;99.90;;;;;;5083961;28;20191;-80
2020/12/05 02:08:14;;;;;;;35.43;17.83;;;4.00;99.90;;;;;;5073904;28;20182;-82
2020/12/05 02:10:49;;;;;;;40.70;18.37;;;4.00;99.90;;;;;;5058907;28;20214;-80
2020/12/05 02:13:26;;;;;;;36.80;18.40;;;4.10;99.90;;;;;;5087709;28;20212;-80
2020/12/05 02:15:53;;;;;;;33.33;17.67;;;4.10;99.90;;;;;;5075500;28;20171;-80
2020/12/05 02:18:19;;;;;;;36.53;17.37;;;4.10;99.90;;;;;;5089618;28;20186;-81
2020/12/05 02:20:46;;;;;;;37.77;17.77;;;4.10;99.90;;;;;;5073860;28;20210;-82
2020/12/05 02:23:14;;;;;;;36.43;17.40;;;4.10;99.90;;;;;;5089062;28;20586;-82
2020/12/05 02:25:42;;;;;;;39.87;18.77;;;4.10;99.90;;;;;;5090830;28;20644;-81
2020/12/05 02:28:08;;;;;;;35.67;18.37;;;4.10;99.90;;;;;;5076360;28;20241;-81
2020/12/05 02:30:34;;;;;;;41.97;19.63;;;4.10;99.90;;;;;;5070663;28;20297;-80
2020/12/05 02:33:01;;;;;;;43.00;20.20;;;4.10;99.90;;;;;;5053798;28;20184;-81
2020/12/05 02:35:27;;;;;;;33.87;17.43;;;4.10;99.90;;;;;;5087059;28;20274;-82
2020/12/05 02:38:18;;;;;;;41.17;19.40;;;4.10;99.90;;;;;;5074144;28;20218;-81
2020/12/05 02:40:45;;;;;;;36.40;17.37;;;4.20;99.90;;;;;;5046552;28;20240;-83
2020/12/05 02:43:11;;;;;;;41.13;19.90;;;4.20;99.90;;;;;;5073156;28;20201;-81
2020/12/05 02:45:39;;;;;;;37.90;19.37;;;4.20;99.90;;;;;;5090063;28;20183;-82
2020/12/05 02:48:05;;;;;;;36.23;18.93;;;4.20;99.90;;;;;;5089007;28;20190;-82
2020/12/05 02:50:31;;;;;;;37.83;18.10;;;4.10;99.90;;;;;;5073006;28;20206;-82
2020/12/05 02:52:56;;;;;;;42.13;19.97;;;4.20;99.90;;;;;;5069342;28;20274;-81
2020/12/05 02:55:22;;;;;;;40.63;19.70;;;4.20;99.90;;;;;;5058325;28;20640;-82
2020/12/05 02:57:47;;;;;;;40.87;19.50;;;4.20;99.90;;;;;;5089707;28;20712;-82
2020/12/05 03:00:13;;;;;;;40.13;19.00;;;4.20;99.90;;;;;;5071681;28;20933;-82
2020/12/05 03:02:38;;;;;;;40.20;20.17;;;4.30;99.90;;;;;;5089971;28;20203;-82
2020/12/05 03:05:04;;;;;;;41.37;20.53;;;4.30;99.90;;;;;;5088864;28;20637;-83
2020/12/05 03:07:29;;;;;;;38.27;19.60;;;4.30;99.90;;;;;;5081098;28;20187;-80
2020/12/05 03:09:55;;;;;;;38.37;19.07;;;4.40;99.90;;;;;;5073029;28;20540;-82
2020/12/05 03:12:20;;;;;;;39.03;19.47;;;4.40;99.90;;;;;;5055173;28;20192;-82
2020/12/05 03:14:46;;;;;;;37.63;19.77;;;4.40;99.90;;;;;;5053852;28;20198;-82
2020/12/05 03:17:11;;;;;;;39.50;18.90;;;4.40;99.90;;;;;;5072624;28;20175;-82
2020/12/05 03:19:37;;;;;;;41.40;18.47;;;4.40;99.90;;;;;;5072631;28;20177;-81
2020/12/05 03:22:03;;;;;;;41.43;21.90;;;4.40;99.90;;;;;;5068475;28;20290;-82
2020/12/05 03:24:29;;;;;;;41.57;20.77;;;4.50;99.90;;;;;;5068955;28;20173;-82
2020/12/05 03:26:55;;;;;;;37.27;20.33;;;4.50;99.90;;;;;;5079675;28;20187;-82
2020/12/05 03:29:20;;;;;;;40.27;20.00;;;4.40;99.90;;;;;;5063008;28;20198;-83
2020/12/05 03:31:52;;;;;;;42.10;20.83;;;4.40;99.90;;;;;;5072618;28;20236;-82
2020/12/05 03:34:18;;;;;;;39.43;21.00;;;4.40;99.90;;;;;;5073689;28;20645;-84
2020/12/05 03:36:44;;;;;;;46.83;22.70;;;4.50;99.90;;;;;;5059939;28;20222;-82
2020/12/05 03:39:10;;;;;;;42.43;21.77;;;4.50;99.90;;;;;;5053421;28;20259;-82
2020/12/05 03:41:36;;;;;;;39.20;19.77;;;4.40;99.90;;;;;;5079858;28;20269;-83
2020/12/05 03:44:02;;;;;;;41.70;20.30;;;4.40;99.90;;;;;;5072208;28;20178;-83
2020/12/05 03:46:28;;;;;;;42.70;22.17;;;4.40;99.90;;;;;;5069847;28;20179;-81
2020/12/05 03:48:54;;;;;;;39.43;21.17;;;4.40;99.90;;;;;;5088867;28;20185;-82
2020/12/05 03:51:19;;;;;;;40.90;21.87;;;4.50;99.90;;;;;;5084409;28;20218;-82
2020/12/05 03:53:45;;;;;;;44.47;21.30;;;4.40;99.90;;;;;;5072093;28;20213;-82
2020/12/05 03:56:11;;;;;;;40.30;20.60;;;4.50;99.90;;;;;;5079022;28;20184;-83
2020/12/05 03:58:38;;;;;;;44.90;22.93;;;4.50;99.90;;;;;;5053802;28;20221;-82
2020/12/05 04:01:03;;;;;;;46.97;23.43;;;4.50;99.90;;;;;;5075472;28;20214;-83
2020/12/05 04:03:29;;;;;;;45.03;22.93;;;4.50;99.90;;;;;;5072104;28;20179;-84
2020/12/05 04:05:54;;;;;;;43.73;22.63;;;4.50;99.90;;;;;;5066320;28;20184;-83
2020/12/05 04:08:20;;;;;;;45.17;22.60;;;4.50;99.90;;;;;;5051995;28;20227;-82
2020/12/05 04:10:45;;;;;;;40.77;20.17;;;4.50;99.90;;;;;;5051992;28;20606;-83
2020/12/05 04:13:11;;;;;;;42.53;20.83;;;4.50;99.90;;;;;;5071753;28;20183;-83
2020/12/05 04:15:37;;;;;;;43.63;21.73;;;4.50;99.90;;;;;;5068010;28;20714;-83
2020/12/05 04:18:02;;;;;;;42.13;21.30;;;4.50;99.90;;;;;;5051190;28;20171;-83
2020/12/05 04:20:27;;;;;;;41.57;23.07;;;4.60;99.90;;;;;;5053598;28;20283;-82
2020/12/05 04:22:54;;;;;;;41.07;19.47;;;4.60;99.90;;;;;;5068474;28;20180;-82
2020/12/05 04:25:24;;;;;;;42.50;21.20;;;4.60;99.90;;;;;;5055833;28;20232;-82
2020/12/05 04:27:51;;;;;;;42.10;21.37;;;4.60;99.90;;;;;;5086552;28;20191;-83
2020/12/05 04:30:16;;;;;;;41.50;22.03;;;4.60;99.90;;;;;;5068739;28;20252;-83
2020/12/05 04:32:42;;;;;;;41.33;21.83;;;4.60;99.90;;;;;;5081710;28;20202;-83
2020/12/05 04:35:09;;;;;;;40.60;20.93;;;4.60;99.90;;;;;;5088264;28;20183;-82
2020/12/05 04:37:34;;;;;;;49.10;22.53;;;4.60;99.90;;;;;;5088756;28;20190;-83
2020/12/05 04:40:00;;;;;;;40.40;22.23;;;4.60;99.90;;;;;;5054299;28;20309;-82
2020/12/05 04:42:25;;;;;;;38.57;21.03;;;4.60;99.90;;;;;;5064672;28;20199;-82
2020/12/05 04:44:52;;;;;;;44.23;22.47;;;4.60;99.90;;;;;;5067862;28;20683;-80
2020/12/05 04:47:18;;;;;;;49.00;23.80;;;4.60;99.90;;;;;;5068173;28;20186;-83
2020/12/05 04:49:45;;;;;;;47.93;22.63;;;4.60;99.90;;;;;;5070417;28;20187;-81
2020/12/05 04:52:21;;;;;;;42.83;21.93;;;4.60;99.90;;;;;;5072946;28;20202;-82
2020/12/05 04:54:54;;;;;;;42.47;21.00;;;4.60;99.90;;;;;;5070273;28;20195;-81
2020/12/05 04:57:25;;;;;;;45.83;22.40;;;4.60;99.90;;;;;;5068269;28;20199;-82
2020/12/05 04:59:52;;;;;;;51.03;24.47;;;4.70;99.90;;;;;;5054825;28;20663;-82
2020/12/05 05:02:29;;;;;;;45.67;22.30;;;4.70;99.90;;;;;;5071201;28;20191;-82
2020/12/05 05:04:55;;;;;;;45.77;23.70;;;4.70;99.90;;;;;;5067226;28;20187;-83
2020/12/05 05:07:21;;;;;;;45.97;22.70;;;4.70;99.90;;;;;;5052054;28;20174;-84
2020/12/05 05:09:58;;;;;;;51.63;25.90;;;4.70;99.90;;;;;;5069999;28;20201;-82
2020/12/05 05:12:25;;;;;;;46.07;22.70;;;4.70;99.90;;;;;;5071188;28;20202;-83
2020/12/05 05:14:51;;;;;;;47.87;23.27;;;4.70;99.90;;;;;;5067324;28;20450;-83
2020/12/05 05:17:17;;;;;;;47.73;24.43;;;4.70;99.90;;;;;;5052324;28;20180;-83
2020/12/05 05:19:42;;;;;;;42.97;23.30;;;4.80;99.90;;;;;;5081286;28;20261;-83
2020/12/05 05:22:08;;;;;;;42.40;21.83;;;4.80;99.90;;;;;;5087901;28;20191;-82
2020/12/05 05:24:34;;;;;;;48.43;23.40;;;4.80;99.90;;;;;;5067173;28;20645;-82
2020/12/05 05:27:09;;;;;;;43.50;22.73;;;4.80;99.90;;;;;;5055421;28;20305;-83
2020/12/05 05:29:39;;;;;;;49.57;24.47;;;4.80;99.90;;;;;;5088928;28;20330;-82
2020/12/05 05:32:12;;;;;;;46.43;24.90;;;4.80;99.90;;;;;;5086110;28;20203;-80
2020/12/05 05:34:37;;;;;;;51.07;24.90;;;4.90;99.90;;;;;;5054324;28;20259;-82
2020/12/05 05:37:23;;;;;;;47.83;23.83;;;4.90;99.90;;;;;;5071730;28;20259;-83
2020/12/05 05:39:52;;;;;;;48.00;25.07;;;4.90;99.90;;;;;;5070692;28;20242;-83
2020/12/05 05:42:35;;;;;;;46.10;23.73;;;4.90;99.90;;;;;;5063951;28;20672;-82
2020/12/05 05:45:22;;;;;;;47.00;24.97;;;4.90;99.90;;;;;;5075464;28;20194;-82
2020/12/05 05:47:50;;;;;;;43.10;23.03;;;4.90;99.90;;;;;;5072313;28;20314;-84
2020/12/05 05:50:25;;;;;;;41.63;23.03;;;4.90;99.90;;;;;;5056014;28;20211;-84
2020/12/05 05:53:21;;;;;;;45.70;23.67;;;4.90;99.90;;;;;;5076816;28;20179;-83
2020/12/05 05:55:49;;;;;;;55.93;26.10;;;4.90;99.90;;;;;;5054555;28;20211;-85
2020/12/05 05:58:20;;;;;;;48.27;23.23;;;5.00;99.90;;;;;;5079438;28;20185;-84
2020/12/05 06:00:47;;;;;;;46.70;23.27;;;4.90;99.90;;;;;;5075406;28;20195;-83
2020/12/05 06:03:16;;;;;;;47.67;23.43;;;5.00;99.90;;;;;;5070454;28;20268;-85
2020/12/05 06:05:47;;;;;;;46.83;23.10;;;4.90;99.90;;;;;;5054436;28;20323;-85
2020/12/05 06:08:38;;;;;;;44.50;23.47;;;5.00;99.90;;;;;;5082251;28;20271;-83
2020/12/05 06:11:11;;;;;;;49.83;22.97;;;5.00;99.90;;;;;;5090800;28;20219;-83
2020/12/05 06:13:37;;;;;;;42.93;20.87;;;5.00;99.90;;;;;;5075439;28;20654;-83
2020/12/05 06:16:04;;;;;;;46.47;23.27;;;5.00;99.90;;;;;;5057365;28;20172;-84
2020/12/05 06:18:31;;;;;;;45.50;22.87;;;5.00;99.90;;;;;;5071439;28;20262;-84
2020/12/05 06:20:57;;;;;;;41.10;21.90;;;5.00;99.90;;;;;;5089077;28;20230;-82
2020/12/05 06:23:35;;;;;;;48.17;23.50;;;5.00;99.90;;;;;;5070555;28;20192;-83
2020/12/05 06:26:02;;;;;;;42.77;21.57;;;5.00;99.90;;;;;;5070807;28;20272;-82
2020/12/05 06:28:29;;;;;;;41.87;21.07;;;5.00;99.90;;;;;;5082485;28;20646;-84
2020/12/05 06:30:55;;;;;;;46.97;22.87;;;5.00;99.90;;;;;;5090356;28;20214;-85
2020/12/05 06:33:43;;;;;;;46.70;23.80;;;5.00;99.90;;;;;;5072152;28;20718;-83
2020/12/05 06:36:39;;;;;;;42.87;21.20;;;5.00;99.90;;;;;;5090169;28;20197;-83
2020/12/05 06:39:16;;;;;;;44.50;23.20;;;5.00;99.90;;;;;;5069874;28;20248;-83
2020/12/05 06:41:45;;;;;;;49.40;23.57;;;5.00;99.90;;;;;;5091252;28;20203;-82
2020/12/05 06:44:34;;;;;;;42.80;22.87;;;5.00;99.90;;;;;;5064019;28;20532;-82
2020/12/05 06:47:02;;;;;;;46.63;23.80;;;5.00;99.90;;;;;;5085263;28;20195;-83
2020/12/05 06:49:37;;;;;;;45.73;22.13;;;5.00;99.90;;;;;;5083986;28;20182;-83
2020/12/05 06:52:25;;;;;;;43.07;21.37;;;5.10;99.90;;;;;;5073509;28;20214;-83
2020/12/05 06:55:00;;;;;;;42.67;22.50;;;5.10;99.90;;;;;;5072225;28;20180;-85
2020/12/05 06:57:28;;;;;;;48.93;24.00;;;5.10;99.90;;;;;;5078194;28;20179;-83
2020/12/05 07:00:18;;;;;;;47.37;23.20;;;5.10;99.90;;;;;;5075282;28;20722;-85
2020/12/05 07:02:50;;;;;;;43.97;21.67;;;5.10;99.90;;;;;;5058299;28;21016;-85
2020/12/05 07:05:19;;;;;;;43.97;22.03;;;5.10;99.90;;;;;;5057717;28;20263;-82
2020/12/05 07:07:45;;;;;;;41.77;22.67;;;5.10;99.90;;;;;;5072148;28;20180;-84
2020/12/05 07:10:11;;;;;;;41.07;20.63;;;5.20;99.90;;;;;;5073786;28;20212;-82
2020/12/05 07:12:41;;;;;;;42.33;22.07;;;5.20;99.90;;;;;;5083416;28;20219;-82
2020/12/05 07:15:20;;;;;;;42.63;22.47;;;5.10;99.90;;;;;;5092123;28;20498;-83
2020/12/05 07:17:46;;;;;;;43.00;22.30;;;5.10;99.90;;;;;;5092524;28;20183;-81
2020/12/05 07:20:11;;;;;;;42.10;21.40;;;5.10;99.90;;;;;;5076167;28;20761;-82
2020/12/05 07:22:37;;;;;;;45.57;22.67;;;5.10;99.90;;;;;;5057892;28;20220;-82
2020/12/05 07:25:02;;;;;;;46.40;22.43;;;5.20;99.90;;;;;;5074966;28;20199;-82
2020/12/05 07:27:28;;;;;;;40.90;20.90;;;5.20;99.90;;;;;;5058830;28;20237;-83
2020/12/05 07:29:54;;;;;;;42.60;22.13;;;5.10;99.90;;;;;;5079533;28;20221;-84
2020/12/05 07:32:20;;;;;;;42.50;21.83;;;5.10;99.90;;;;;;5067439;28;20231;-82
2020/12/05 07:34:46;;;;;;;49.17;24.17;;;5.10;99.90;;;;;;5069007;28;20218;-82
2020/12/05 07:37:25;;;;;;;43.73;22.87;;;5.20;99.90;;;;;;5069088;28;20181;-82
2020/12/05 07:39:56;;;;;;;51.30;25.43;;;5.10;99.90;;;;;;5057390;28;20212;-81
2020/12/05 07:42:22;;;;;;;47.27;22.93;;;5.10;99.90;;;;;;5078312;28;20297;-82
2020/12/05 07:44:48;;;;;;;44.60;21.87;;;5.10;99.90;;;;;;5073413;28;20181;-81
2020/12/05 07:47:21;;;;;;;47.60;22.97;;;5.00;99.90;;;;;;5072447;28;20180;-81
2020/12/05 07:49:54;;;;;;;45.37;22.17;;;5.00;99.90;;;;;;5072933;28;20541;-82
2020/12/05 07:52:23;;;;;;;47.33;24.97;;;5.00;99.90;;;;;;5072676;28;20201;-82
2020/12/05 07:55:02;;;;;;;45.63;22.30;;;5.00;99.90;;;;;;5070193;28;20277;-79
2020/12/05 07:57:50;;;;;;;47.33;24.40;;;5.00;99.90;;;;;;5053529;28;20634;-81
2020/12/05 08:00:18;;;;;;;46.40;22.73;;;5.00;99.90;;;;;;5059373;28;20257;-82
2020/12/05 08:03:32;;;;;;;44.80;22.07;;;5.00;99.90;;;;;;5088888;28;20203;-80
2020/12/05 08:06:05;;;;;;;46.93;23.00;;;5.00;99.90;;;;;;5058957;28;20180;-81
2020/12/05 08:08:32;;;;;;;48.10;22.83;;;5.10;99.90;;;;;;5052180;28;20206;-81
2020/12/05 08:11:02;;;;;;;43.03;23.27;;;5.20;99.90;;;;;;5080376;28;20213;-82
2020/12/05 08:13:30;;;;;;;42.47;21.83;;;5.20;99.90;;;;;;5072151;28;20281;-82
2020/12/05 08:16:05;;;;;;;48.97;22.40;;;5.20;99.90;;;;;;5084598;28;20181;-82
2020/12/05 08:18:33;;;;;;;53.17;25.50;;;5.10;99.90;;;;;;5073399;28;20171;-82
2020/12/05 08:21:01;;;;;;;44.43;23.80;;;5.20;99.90;;;;;;5066256;28;20239;-82
2020/12/05 08:23:30;;;;;;;41.83;21.50;;;5.10;99.90;;;;;;5068984;28;20629;-81
2020/12/05 08:25:59;;;;;;;40.27;20.13;;;5.20;99.90;;;;;;5068608;28;20189;-81
2020/12/05 08:28:28;;;;;;;45.90;23.60;;;5.20;99.90;;;;;;5052200;28;20203;-82
2020/12/05 08:30:54;;;;;;;42.20;23.13;;;5.30;99.90;;;;;;5064375;28;20214;-82
2020/12/05 08:33:20;;;;;;;44.83;22.50;;;5.30;99.90;;;;;;5068614;28;20240;-81
2020/12/05 08:35:46;;;;;;;44.47;22.40;;;5.40;99.90;;;;;;5088084;28;20182;-82
2020/12/05 08:38:19;;;;;;;43.73;21.27;;;5.40;99.90;;;;;;5058311;28;20255;-81
2020/12/05 08:41:02;;;;;;;45.87;24.97;;;5.50;99.90;;;;;;5060156;28;20202;-81
2020/12/05 08:43:28;;;;;;;42.80;21.97;;;5.50;99.90;;;;;;5067225;28;20192;-81
2020/12/05 08:45:53;;;;;;;46.17;23.80;;;5.50;99.90;;;;;;5064535;28;20188;-82
2020/12/05 08:48:19;;;;;;;47.10;23.73;;;5.50;99.90;;;;;;5073202;28;20269;-81
2020/12/05 08:50:46;;;;;;;51.83;24.83;;;5.60;99.90;;;;;;5077020;28;20739;-81
2020/12/05 08:53:13;;;;;;;43.87;22.37;;;5.60;99.90;;;;;;5065397;28;20193;-82
2020/12/05 08:55:47;;;;;;;44.00;23.33;;;5.60;99.90;;;;;;5065476;28;20700;-84
2020/12/05 08:58:14;;;;;;;48.67;24.70;;;5.60;99.90;;;;;;5067524;28;20170;-81
2020/12/05 09:00:40;;;;;;;42.27;20.67;;;5.60;99.90;;;;;;5061186;28;20271;-81
2020/12/05 09:03:20;;;;;;;41.80;21.93;;;5.70;99.90;;;;;;5073694;28;20189;-82
2020/12/05 09:05:47;;;;;;;44.93;23.70;;;5.60;99.90;;;;;;5076558;28;20183;-83
2020/12/05 09:08:18;;;;;;;52.03;24.47;;;5.70;99.90;;;;;;5075765;28;20214;-83
2020/12/05 09:10:45;;;;;;;41.23;20.70;;;5.70;99.90;;;;;;5057072;28;20533;-82
2020/12/05 09:13:10;;;;;;;46.67;24.23;;;5.70;99.90;;;;;;5074485;28;20179;-84
2020/12/05 09:15:36;;;;;;;42.57;22.57;;;5.70;99.90;;;;;;5056164;28;20263;-82
2020/12/05 09:18:01;;;;;;;51.17;25.40;;;5.70;99.90;;;;;;5083109;28;20199;-84
2020/12/05 09:20:27;;;;;;;41.20;22.13;;;5.80;99.90;;;;;;5068746;28;20655;-83
2020/12/05 09:22:56;;;;;;;53.90;26.90;;;5.80;99.90;;;;;;5073460;28;20657;-82
2020/12/05 09:25:35;;;;;;;50.97;24.63;;;5.80;99.90;;;;;;5073249;28;20224;-82
2020/12/05 09:28:07;;;;;;;53.10;26.17;;;5.80;99.90;;;;;;5073363;28;20273;-81
2020/12/05 09:30:32;;;;;;;52.57;26.53;;;5.80;99.90;;;;;;5077558;28;20217;-81
2020/12/05 09:32:58;;;;;;;53.27;24.90;;;5.70;99.90;;;;;;5056989;28;20201;-81
2020/12/05 09:35:25;;;;;;;51.33;26.33;;;5.80;99.90;;;;;;5054798;28;20187;-82
2020/12/05 09:37:51;;;;;;;48.20;24.03;;;5.70;99.90;;;;;;5083668;28;20179;-82
2020/12/05 09:40:20;;;;;;;50.67;25.00;;;5.80;99.90;;;;;;5060895;28;20321;-81
2020/12/05 09:42:46;;;;;;;50.87;27.13;;;5.80;99.90;;;;;;5070888;28;20230;-82
2020/12/05 09:45:13;;;;;;;52.93;26.90;;;5.80;99.90;;;;;;5073659;28;20266;-81
2020/12/05 09:47:40;;;;;;;57.73;27.57;;;5.70;99.90;;;;;;5087371;28;20179;-83
2020/12/05 09:50:06;;;;;;;49.13;22.97;;;5.70;99.90;;;;;;5090856;28;20206;-83
2020/12/05 09:52:32;;;;;;;47.57;23.77;;;5.70;99.90;;;;;;5070745;28;20195;-82
2020/12/05 09:54:58;;;;;;;46.30;22.87;;;5.80;99.90;;;;;;5097591;28;20173;-82
2020/12/05 09:57:23;;;;;;;44.63;23.50;;;5.70;99.90;;;;;;5085778;28;20564;-82
2020/12/05 09:59:49;;;;;;;47.47;23.17;;;5.70;99.90;;;;;;5090947;28;20246;-82
2020/12/05 10:02:14;;;;;;;46.10;21.73;;;5.60;99.90;;;;;;5090696;28;20269;-83
2020/12/05 10:04:40;;;;;;;44.03;21.73;;;5.60;99.90;;;;;;5071023;28;20536;-82
2020/12/05 10:07:06;;;;;;;52.97;23.53;;;5.60;99.90;;;;;;5074160;28;20173;-83
2020/12/05 10:09:32;;;;;;;44.73;21.57;;;5.60;99.90;;;;;;5064221;28;20215;-83
2020/12/05 10:11:58;;;;;;;45.87;22.33;;;5.60;99.90;;;;;;5074994;28;20674;-82
2020/12/05 10:14:23;;;;;;;48.33;23.43;;;5.60;99.90;;;;;;5090541;28;20550;-82
2020/12/05 10:16:49;;;;;;;41.00;20.83;;;5.60;99.90;;;;;;5084288;28;20178;-82
2020/12/05 10:19:14;;;;;;;42.90;23.50;;;5.60;99.90;;;;;;5055162;28;20693;-84
2020/12/05 10:21:44;;;;;;;40.40;21.63;;;5.50;99.90;;;;;;5055080;28;20279;-82
2020/12/05 10:24:09;;;;;;;44.97;23.17;;;5.40;99.90;;;;;;5070463;28;20581;-82
2020/12/05 10:26:35;;;;;;;46.30;22.80;;;5.40;99.90;;;;;;5055762;28;20197;-83
2020/12/05 10:29:00;;;;;;;42.53;21.77;;;5.40;99.90;;;;;;5079814;28;20629;-82
2020/12/05 10:31:25;;;;;;;44.10;21.90;;;5.30;99.90;;;;;;5059204;28;20211;-81
2020/12/05 10:33:51;;;;;;;46.13;22.90;;;5.30;99.90;;;;;;5077807;28;20614;-82
2020/12/05 10:36:20;;;;;;;44.03;21.23;;;5.30;99.90;;;;;;5089531;28;20220;-81
2020/12/05 10:38:45;;;;;;;40.83;22.60;;;5.20;99.90;;;;;;5089406;28;20270;-80
2020/12/05 10:41:14;;;;;;;43.57;20.63;;;5.20;99.90;;;;;;5076018;28;20232;-82
2020/12/05 10:43:40;;;;;;;43.17;22.10;;;5.20;99.90;;;;;;5075018;28;20552;-83
2020/12/05 10:46:05;;;;;;;41.83;21.77;;;5.20;99.90;;;;;;5072398;28;20187;-83
2020/12/05 10:48:31;;;;;;;43.50;22.13;;;5.20;99.90;;;;;;5086670;28;20168;-82
2020/12/05 10:50:58;;;;;;;38.50;20.43;;;5.10;99.90;;;;;;5084090;28;20209;-82
2020/12/05 10:53:23;;;;;;;42.93;22.07;;;5.20;99.90;;;;;;5073163;28;20174;-83
2020/12/05 10:55:48;;;;;;;42.53;21.60;;;5.10;99.90;;;;;;5075255;28;20177;-83
2020/12/05 10:58:14;;;;;;;46.33;23.47;;;5.10;99.90;;;;;;5088547;28;20544;-82
2020/12/05 11:00:39;;;;;;;41.40;23.17;;;5.00;99.90;;;;;;5072960;28;20184;-83
2020/12/05 11:03:05;;;;;;;39.67;21.77;;;5.00;99.90;;;;;;5069214;28;20196;-83
2020/12/05 11:05:30;;;;;;;44.10;21.60;;;5.00;99.90;;;;;;5054396;28;20645;-84
2020/12/05 11:07:56;;;;;;;43.00;22.73;;;5.00;99.90;;;;;;5069609;28;20195;-80
2020/12/05 11:10:21;;;;;;;42.33;21.67;;;5.00;99.90;;;;;;5072070;28;20252;-84
2020/12/05 11:12:47;;;;;;;41.97;22.27;;;5.00;99.90;;;;;;5087582;28;20209;-81
2020/12/05 11:15:12;;;;;;;42.57;21.33;;;5.10;99.90;;;;;;5061547;28;20186;-81
2020/12/05 11:17:38;;;;;;;40.10;20.73;;;5.10;99.90;;;;;;5074674;28;20207;-80
2020/12/05 11:20:03;;;;;;;40.47;21.73;;;5.00;99.90;;;;;;5072367;28;20602;-80
2020/12/05 11:22:29;;;;;;;43.40;21.87;;;5.00;99.90;;;;;;5083892;28;20187;-80
2020/12/05 11:24:54;;;;;;;45.40;21.03;;;5.00;99.90;;;;;;5070789;28;20641;-81
2020/12/05 11:27:20;;;;;;;40.30;21.87;;;5.00;99.90;;;;;;5068963;28;20173;-80
2020/12/05 11:29:45;;;;;;;38.93;21.20;;;5.10;99.90;;;;;;5068846;28;20211;-80
2020/12/05 11:32:11;;;;;;;39.70;21.67;;;5.10;99.90;;;;;;5078646;28;20219;-81
2020/12/05 11:34:36;;;;;;;36.27;19.83;;;5.00;99.90;;;;;;5071810;28;20218;-83
2020/12/05 11:37:02;;;;;;;38.67;21.37;;;5.10;99.90;;;;;;5088796;28;20175;-80
2020/12/05 11:39:27;;;;;;;45.17;23.30;;;5.00;99.90;;;;;;5071171;28;20208;-79
2020/12/05 11:41:53;;;;;;;43.10;23.07;;;5.00;99.90;;;;;;5066952;28;20207;-80
2020/12/05 11:44:18;;;;;;;43.30;20.90;;;5.00;99.90;;;;;;5074433;28;20651;-82
2020/12/05 11:46:44;;;;;;;42.10;23.70;;;4.90;99.90;;;;;;5081264;28;20552;-81
2020/12/05 11:49:09;;;;;;;40.07;20.57;;;4.80;99.90;;;;;;5080932;28;20322;-81
2020/12/05 11:51:37;;;;;;;40.53;22.10;;;4.70;99.90;;;;;;5070466;28;20689;-81
2020/12/05 11:54:03;;;;;;;40.07;20.83;;;4.80;99.90;;;;;;5067179;28;20521;-82
2020/12/05 11:56:29;;;;;;;37.70;20.73;;;4.90;99.90;;;;;;5082639;28;20182;-82
2020/12/05 11:58:55;;;;;;;38.07;20.07;;;5.00;99.90;;;;;;5081956;28;20259;-82
2020/12/05 12:01:20;;;;;;;39.40;20.03;;;5.10;99.90;;;;;;5068813;28;20698;-81
2020/12/05 12:03:46;;;;;;;38.53;19.80;;;5.30;99.90;;;;;;5058920;28;20203;-81
2020/12/05 12:06:15;;;;;;;38.17;20.10;;;5.40;99.90;;;;;;5057574;28;20658;-81
2020/12/05 12:08:42;;;;;;;46.23;22.37;;;5.20;99.90;;;;;;5072425;28;20290;-80
2020/12/05 12:11:07;;;;;;;44.53;23.30;;;5.20;99.90;;;;;;5068450;28;20215;-81
2020/12/05 12:13:33;;;;;;;37.40;20.57;;;5.20;99.90;;;;;;5084082;28;20597;-82
2020/12/05 12:15:58;;;;;;;40.00;21.43;;;5.20;99.90;;;;;;5070328;28;20198;-81
2020/12/05 12:18:24;;;;;;;48.87;23.27;;;5.20;99.90;;;;;;5087254;28;20253;-81
2020/12/05 12:20:49;;;;;;;53.20;26.73;;;5.10;99.90;;;;;;5087159;28;20501;-81
2020/12/05 12:23:15;;;;;;;44.87;23.23;;;5.00;99.90;;;;;;5078784;28;20191;-81
2020/12/05 12:25:40;;;;;;;41.80;22.07;;;5.00;99.90;;;;;;5079668;28;20318;-80
2020/12/05 12:28:06;;;;;;;45.57;22.23;;;5.00;99.90;;;;;;5068094;28;20187;-80
2020/12/05 12:30:31;;;;;;;38.33;21.60;;;5.10;99.90;;;;;;5075713;28;20206;-79
2020/12/05 12:32:57;;;;;;;40.93;21.47;;;5.10;99.90;;;;;;5085807;28;20187;-81
2020/12/05 12:35:23;;;;;;;47.43;22.93;;;5.10;99.90;;;;;;5070000;28;20182;-79
2020/12/05 12:37:48;;;;;;;43.23;21.27;;;5.10;99.90;;;;;;5069714;28;20572;-80
2020/12/05 12:40:14;;;;;;;42.07;22.17;;;5.10;99.90;;;;;;5071856;28;20192;-80